sensor_id;sensor_type;location;lat;lon;timestamp;pressure;altitude;pressure_sealevel;temperature;humidity
60240;BME280;46102;39.012;-7.064;2023-11-21T00:01:57;98957.09;;;13.25;100.00
60240;BME280;46102;39.012;-7.064;2023-11-21T00:03:58;98955.00;;;13.22;100.00
60240;BME280;46102;39.012;-7.064;2023-11-21T00:05:59;98950.59;;;13.21;100.00
60240;BME280;46102;39.012;-7.064;2023-11-21T00:08:01;98953.69;;;13.20;100.00
60240;BME280;46102;39.012;-7.064;2023-11-21T00:10:02;98952.72;;;13.16;100.00
60240;BME280;46102;39.012;-7.064;2023-11-21T00:12:03;98948.34;;;13.15;100.00
60240;BME280;46102;39.012;-7.064;2023-11-21T00:14:04;98957.09;;;13.17;100.00
60240;BME280;46102;39.012;-7.064;2023-11-21T00:16:05;98949.97;;;13.16;100.00
60240;BME280;46102;39.012;-7.064;2023-11-21T00:18:07;98958.06;;;13.21;100.00
60240;BME280;46102;39.012;-7.064;2023-11-21T00:20:09;98966.31;;;13.21;100.00
60240;BME280;46102;39.012;-7.064;2023-11-21T00:22:13;98961.00;;;13.24;100.00
60240;BME280;46102;39.012;-7.064;2023-11-21T00:24:14;98951.78;;;13.29;100.00
60240;BME280;46102;39.012;-7.064;2023-11-21T00:26:14;98956.31;;;13.33;100.00
60240;BME280;46102;39.012;-7.064;2023-11-21T00:28:19;98956.78;;;13.36;100.00
60240;BME280;46102;39.012;-7.064;2023-11-21T00:30:19;98965.56;;;13.38;100.00
60240;BME280;46102;39.012;-7.064;2023-11-21T00:32:22;98961.66;;;13.39;100.00
60240;BME280;46102;39.012;-7.064;2023-11-21T00:34:23;98957.44;;;13.41;100.00
60240;BME280;46102;39.012;-7.064;2023-11-21T00:36:24;98955.16;;;13.43;100.00
60240;BME280;46102;39.012;-7.064;2023-11-21T00:38:26;98971.69;;;13.43;100.00
60240;BME280;46102;39.012;-7.064;2023-11-21T00:40:27;98974.13;;;13.45;100.00
60240;BME280;46102;39.012;-7.064;2023-11-21T00:42:28;98984.19;;;13.49;100.00
60240;BME280;46102;39.012;-7.064;2023-11-21T00:44:29;98969.41;;;13.45;100.00
60240;BME280;46102;39.012;-7.064;2023-11-21T00:46:30;98968.63;;;13.45;100.00
60240;BME280;46102;39.012;-7.064;2023-11-21T00:48:31;98964.56;;;13.42;100.00
60240;BME280;46102;39.012;-7.064;2023-11-21T00:50:32;98964.22;;;13.44;100.00
60240;BME280;46102;39.012;-7.064;2023-11-21T00:52:33;98962.94;;;13.41;100.00
60240;BME280;46102;39.012;-7.064;2023-11-21T00:54:34;98963.75;;;13.42;100.00
60240;BME280;46102;39.012;-7.064;2023-11-21T00:56:34;98952.88;;;13.45;100.00
60240;BME280;46102;39.012;-7.064;2023-11-21T00:58:35;98948.97;;;13.46;100.00
60240;BME280;46102;39.012;-7.064;2023-11-21T01:00:36;98948.19;;;13.46;100.00
60240;BME280;46102;39.012;-7.064;2023-11-21T01:02:40;98945.41;;;13.46;100.00
60240;BME280;46102;39.012;-7.064;2023-11-21T01:04:40;98939.28;;;13.40;100.00
60240;BME280;46102;39.012;-7.064;2023-11-21T01:06:41;98942.03;;;13.31;100.00
60240;BME280;46102;39.012;-7.064;2023-11-21T01:08:44;98948.34;;;13.23;100.00
60240;BME280;46102;39.012;-7.064;2023-11-21T01:10:45;98942.69;;;13.20;100.00
60240;BME280;46102;39.012;-7.064;2023-11-21T01:12:46;98940.91;;;13.15;100.00
60240;BME280;46102;39.012;-7.064;2023-11-21T01:14:46;98944.47;;;13.16;100.00
60240;BME280;46102;39.012;-7.064;2023-11-21T01:16:47;98942.81;;;13.15;100.00
60240;BME280;46102;39.012;-7.064;2023-11-21T01:18:49;98940.06;;;13.15;100.00
60240;BME280;46102;39.012;-7.064;2023-11-21T01:20:50;98938.63;;;13.08;100.00
60240;BME280;46102;39.012;-7.064;2023-11-21T01:22:50;98934.41;;;13.11;100.00
60240;BME280;46102;39.012;-7.064;2023-11-21T01:24:53;98940.41;;;13.13;100.00
60240;BME280;46102;39.012;-7.064;2023-11-21T01:26:54;98934.56;;;13.15;100.00
60240;BME280;46102;39.012;-7.064;2023-11-21T01:28:54;98937.31;;;13.15;100.00
60240;BME280;46102;39.012;-7.064;2023-11-21T01:30:55;98939.94;;;13.11;100.00
60240;BME280;46102;39.012;-7.064;2023-11-21T01:32:56;98932.94;;;13.05;100.00
60240;BME280;46102;39.012;-7.064;2023-11-21T01:34:57;98933.63;;;13.02;100.00
60240;BME280;46102;39.012;-7.064;2023-11-21T01:36:58;98944.44;;;12.98;100.00
60240;BME280;46102;39.012;-7.064;2023-11-21T01:38:59;98938.94;;;12.89;100.00
60240;BME280;46102;39.012;-7.064;2023-11-21T01:41:00;98941.38;;;12.82;100.00
60240;BME280;46102;39.012;-7.064;2023-11-21T01:43:01;98938.28;;;12.75;100.00
60240;BME280;46102;39.012;-7.064;2023-11-21T01:45:05;98940.56;;;12.73;100.00
60240;BME280;46102;39.012;-7.064;2023-11-21T01:47:08;98943.63;;;12.71;100.00
60240;BME280;46102;39.012;-7.064;2023-11-21T01:49:10;98943.00;;;12.75;100.00
60240;BME280;46102;39.012;-7.064;2023-11-21T01:51:13;98944.91;;;12.74;100.00
60240;BME280;46102;39.012;-7.064;2023-11-21T01:53:14;98941.03;;;12.75;100.00
60240;BME280;46102;39.012;-7.064;2023-11-21T01:55:17;98944.59;;;12.76;100.00
60240;BME280;46102;39.012;-7.064;2023-11-21T01:57:21;98941.19;;;12.79;100.00
60240;BME280;46102;39.012;-7.064;2023-11-21T01:59:22;98947.84;;;12.78;100.00
60240;BME280;46102;39.012;-7.064;2023-11-21T02:01:24;98953.03;;;12.79;100.00
60240;BME280;46102;39.012;-7.064;2023-11-21T02:03:27;98947.34;;;12.76;100.00
60240;BME280;46102;39.012;-7.064;2023-11-21T02:05:28;98949.31;;;12.75;100.00
60240;BME280;46102;39.012;-7.064;2023-11-21T02:07:29;98951.38;;;12.69;100.00
60240;BME280;46102;39.012;-7.064;2023-11-21T02:09:32;98948.63;;;12.69;100.00
60240;BME280;46102;39.012;-7.064;2023-11-21T02:11:34;98944.41;;;12.72;100.00
60240;BME280;46102;39.012;-7.064;2023-11-21T02:13:36;98948.81;;;12.73;100.00
60240;BME280;46102;39.012;-7.064;2023-11-21T02:15:37;98946.22;;;12.68;100.00
60240;BME280;46102;39.012;-7.064;2023-11-21T02:17:39;98946.03;;;12.64;100.00
60240;BME280;46102;39.012;-7.064;2023-11-21T02:19:40;98939.06;;;12.58;100.00
60240;BME280;46102;39.012;-7.064;2023-11-21T02:21:41;98935.47;;;12.49;100.00
60240;BME280;46102;39.012;-7.064;2023-11-21T02:23:42;98932.09;;;12.43;100.00
60240;BME280;46102;39.012;-7.064;2023-11-21T02:25:44;98949.72;;;12.42;100.00
60240;BME280;46102;39.012;-7.064;2023-11-21T02:27:45;98937.09;;;12.41;100.00
60240;BME280;46102;39.012;-7.064;2023-11-21T02:29:48;98940.66;;;12.42;100.00
60240;BME280;46102;39.012;-7.064;2023-11-21T02:31:52;98940.16;;;12.40;100.00
60240;BME280;46102;39.012;-7.064;2023-11-21T02:33:55;98944.34;;;12.37;100.00
60240;BME280;46102;39.012;-7.064;2023-11-21T02:35:56;98941.44;;;12.34;100.00
60240;BME280;46102;39.012;-7.064;2023-11-21T02:37:57;98956.63;;;12.31;100.00
60240;BME280;46102;39.012;-7.064;2023-11-21T02:39:59;98955.03;;;12.30;100.00
60240;BME280;46102;39.012;-7.064;2023-11-21T02:42:00;98957.13;;;12.33;100.00
60240;BME280;46102;39.012;-7.064;2023-11-21T02:44:00;98947.41;;;12.36;100.00
60240;BME280;46102;39.012;-7.064;2023-11-21T02:46:01;98955.38;;;12.37;100.00
60240;BME280;46102;39.012;-7.064;2023-11-21T02:48:02;98952.47;;;12.42;100.00
60240;BME280;46102;39.012;-7.064;2023-11-21T02:50:04;98961.84;;;12.41;100.00
60240;BME280;46102;39.012;-7.064;2023-11-21T02:52:08;98967.97;;;12.38;100.00
60240;BME280;46102;39.012;-7.064;2023-11-21T02:54:09;98976.56;;;12.37;100.00
60240;BME280;46102;39.012;-7.064;2023-11-21T02:56:10;98968.94;;;12.34;100.00
60240;BME280;46102;39.012;-7.064;2023-11-21T02:58:11;98962.31;;;12.35;100.00
60240;BME280;46102;39.012;-7.064;2023-11-21T03:00:12;98959.56;;;12.35;100.00
60240;BME280;46102;39.012;-7.064;2023-11-21T03:02:15;98960.69;;;12.34;100.00
60240;BME280;46102;39.012;-7.064;2023-11-21T03:04:16;98960.69;;;12.34;100.00
60240;BME280;46102;39.012;-7.064;2023-11-21T03:06:19;98963.13;;;12.35;100.00
60240;BME280;46102;39.012;-7.064;2023-11-21T03:08:20;98948.06;;;12.33;100.00
60240;BME280;46102;39.012;-7.064;2023-11-21T03:10:22;98945.31;;;12.33;100.00
60240;BME280;46102;39.012;-7.064;2023-11-21T03:12:23;98940.63;;;12.33;100.00
60240;BME280;46102;39.012;-7.064;2023-11-21T03:14:24;98935.91;;;12.34;100.00
60240;BME280;46102;39.012;-7.064;2023-11-21T03:16:25;98942.41;;;12.38;100.00
60240;BME280;46102;39.012;-7.064;2023-11-21T03:18:26;98950.84;;;12.41;100.00
60240;BME280;46102;39.012;-7.064;2023-11-21T03:20:29;98952.81;;;12.41;100.00
60240;BME280;46102;39.012;-7.064;2023-11-21T03:22:31;98947.78;;;12.43;100.00
60240;BME280;46102;39.012;-7.064;2023-11-21T03:24:33;98945.03;;;12.43;100.00
60240;BME280;46102;39.012;-7.064;2023-11-21T03:26:34;98933.38;;;12.46;100.00
60240;BME280;46102;39.012;-7.064;2023-11-21T03:28:34;98932.09;;;12.43;100.00
60240;BME280;46102;39.012;-7.064;2023-11-21T03:30:36;98925.28;;;12.41;100.00
60240;BME280;46102;39.012;-7.064;2023-11-21T03:32:38;98925.78;;;12.43;100.00
60240;BME280;46102;39.012;-7.064;2023-11-21T03:34:54;98937.41;;;12.40;100.00
60240;BME280;46102;39.012;-7.064;2023-11-21T03:36:58;98940.16;;;12.40;100.00
60240;BME280;46102;39.012;-7.064;2023-11-21T03:38:59;98935.31;;;12.37;100.00
60240;BME280;46102;39.012;-7.064;2023-11-21T03:40:59;98944.66;;;12.36;100.00
60240;BME280;46102;39.012;-7.064;2023-11-21T03:43:03;98942.88;;;12.31;100.00
60240;BME280;46102;39.012;-7.064;2023-11-21T03:45:05;98939.63;;;12.29;100.00
60240;BME280;46102;39.012;-7.064;2023-11-21T03:47:06;98940.94;;;12.23;100.00
60240;BME280;46102;39.012;-7.064;2023-11-21T03:49:07;98941.69;;;12.15;100.00
60240;BME280;46102;39.012;-7.064;2023-11-21T03:51:09;98937.97;;;12.11;100.00
60240;BME280;46102;39.012;-7.064;2023-11-21T03:53:09;98936.84;;;12.12;100.00
60240;BME280;46102;39.012;-7.064;2023-11-21T03:55:10;98942.66;;;12.10;100.00
60240;BME280;46102;39.012;-7.064;2023-11-21T03:57:11;98939.59;;;12.12;100.00
60240;BME280;46102;39.012;-7.064;2023-11-21T03:59:12;98933.25;;;12.11;100.00
60240;BME280;46102;39.012;-7.064;2023-11-21T04:01:20;98936.00;;;12.11;100.00
60240;BME280;46102;39.012;-7.064;2023-11-21T04:03:22;98939.25;;;12.13;100.00
60240;BME280;46102;39.012;-7.064;2023-11-21T04:05:23;98935.41;;;12.14;100.00
60240;BME280;46102;39.012;-7.064;2023-11-21T04:07:23;98931.84;;;12.14;100.00
60240;BME280;46102;39.012;-7.064;2023-11-21T04:09:24;98927.75;;;12.11;100.00
60240;BME280;46102;39.012;-7.064;2023-11-21T04:11:25;98929.72;;;12.11;100.00
60240;BME280;46102;39.012;-7.064;2023-11-21T04:13:26;98928.25;;;12.13;100.00
60240;BME280;46102;39.012;-7.064;2023-11-21T04:15:27;98933.75;;;12.13;100.00
60240;BME280;46102;39.012;-7.064;2023-11-21T04:17:28;98935.22;;;12.11;100.00
60240;BME280;46102;39.012;-7.064;2023-11-21T04:19:28;98940.56;;;12.07;100.00
60240;BME280;46102;39.012;-7.064;2023-11-21T04:21:29;98947.81;;;12.03;100.00
60240;BME280;46102;39.012;-7.064;2023-11-21T04:23:30;98951.19;;;12.00;100.00
60240;BME280;46102;39.012;-7.064;2023-11-21T04:25:32;98945.19;;;11.98;100.00
60240;BME280;46102;39.012;-7.064;2023-11-21T04:27:33;98944.53;;;11.92;100.00
60240;BME280;46102;39.012;-7.064;2023-11-21T04:29:35;98953.41;;;11.89;100.00
60240;BME280;46102;39.012;-7.064;2023-11-21T04:31:35;98958.56;;;11.91;100.00
60240;BME280;46102;39.012;-7.064;2023-11-21T04:33:36;98955.03;;;11.90;100.00
60240;BME280;46102;39.012;-7.064;2023-11-21T04:35:37;98951.97;;;11.92;100.00
60240;BME280;46102;39.012;-7.064;2023-11-21T04:37:38;98951.97;;;11.92;100.00
60240;BME280;46102;39.012;-7.064;2023-11-21T04:39:38;98944.34;;;11.88;100.00
60240;BME280;46102;39.012;-7.064;2023-11-21T04:41:39;98948.84;;;11.84;100.00
60240;BME280;46102;39.012;-7.064;2023-11-21T04:43:40;98947.50;;;11.82;100.00
60240;BME280;46102;39.012;-7.064;2023-11-21T04:45:41;98944.91;;;11.77;100.00
60240;BME280;46102;39.012;-7.064;2023-11-21T04:47:41;98938.09;;;11.74;100.00
60240;BME280;46102;39.012;-7.064;2023-11-21T04:49:46;98951.03;;;11.74;100.00
60240;BME280;46102;39.012;-7.064;2023-11-21T04:51:47;98955.53;;;11.70;100.00
60240;BME280;46102;39.012;-7.064;2023-11-21T04:53:48;98958.91;;;11.66;100.00
60240;BME280;46102;39.012;-7.064;2023-11-21T04:55:49;98958.38;;;11.56;100.00
60240;BME280;46102;39.012;-7.064;2023-11-21T04:57:49;98962.72;;;11.57;100.00
60240;BME280;46102;39.012;-7.064;2023-11-21T04:59:50;98955.75;;;11.51;100.00
60240;BME280;46102;39.012;-7.064;2023-11-21T05:01:51;98962.50;;;11.44;100.00
60240;BME280;46102;39.012;-7.064;2023-11-21T05:03:52;98960.84;;;11.43;100.00
60240;BME280;46102;39.012;-7.064;2023-11-21T05:05:53;98959.25;;;11.42;100.00
60240;BME280;46102;39.012;-7.064;2023-11-21T05:07:53;98966.69;;;11.42;100.00
60240;BME280;46102;39.012;-7.064;2023-11-21T05:09:57;98955.78;;;11.37;100.00
60240;BME280;46102;39.012;-7.064;2023-11-21T05:11:58;98953.38;;;11.35;100.00
60240;BME280;46102;39.012;-7.064;2023-11-21T05:14:00;98947.69;;;11.32;100.00
60240;BME280;46102;39.012;-7.064;2023-11-21T05:16:02;98953.00;;;11.28;100.00
60240;BME280;46102;39.012;-7.064;2023-11-21T05:18:04;98954.13;;;11.27;100.00
60240;BME280;46102;39.012;-7.064;2023-11-21T05:20:06;98946.19;;;11.25;100.00
60240;BME280;46102;39.012;-7.064;2023-11-21T05:22:09;98959.13;;;11.25;100.00
60240;BME280;46102;39.012;-7.064;2023-11-21T05:24:12;98963.00;;;11.24;100.00
60240;BME280;46102;39.012;-7.064;2023-11-21T05:26:13;98953.94;;;11.23;100.00
60240;BME280;46102;39.012;-7.064;2023-11-21T05:28:14;98953.31;;;11.27;100.00
60240;BME280;46102;39.012;-7.064;2023-11-21T05:30:14;98958.19;;;11.30;100.00
60240;BME280;46102;39.012;-7.064;2023-11-21T05:32:15;98960.63;;;11.31;100.00
60240;BME280;46102;39.012;-7.064;2023-11-21T05:34:17;98962.06;;;11.29;100.00
60240;BME280;46102;39.012;-7.064;2023-11-21T05:36:18;98961.25;;;11.28;100.00
60240;BME280;46102;39.012;-7.064;2023-11-21T05:38:19;98958.19;;;11.30;100.00
60240;BME280;46102;39.012;-7.064;2023-11-21T05:40:22;98958.38;;;11.33;100.00
60240;BME280;46102;39.012;-7.064;2023-11-21T05:42:23;98958.88;;;11.35;100.00
60240;BME280;46102;39.012;-7.064;2023-11-21T05:44:24;98960.50;;;11.36;100.00
60240;BME280;46102;39.012;-7.064;2023-11-21T05:46:25;98964.69;;;11.34;100.00
60240;BME280;46102;39.012;-7.064;2023-11-21T05:48:26;98969.00;;;11.26;100.00
60240;BME280;46102;39.012;-7.064;2023-11-21T05:50:27;98973.28;;;11.18;100.00
60240;BME280;46102;39.012;-7.064;2023-11-21T05:52:28;98975.84;;;11.15;100.00
60240;BME280;46102;39.012;-7.064;2023-11-21T05:54:29;98965.38;;;11.17;100.00
60240;BME280;46102;39.012;-7.064;2023-11-21T05:56:30;98965.53;;;11.20;100.00
60240;BME280;46102;39.012;-7.064;2023-11-21T05:58:31;98960.03;;;11.20;100.00
60240;BME280;46102;39.012;-7.064;2023-11-21T06:00:31;98965.03;;;11.18;100.00
60240;BME280;46102;39.012;-7.064;2023-11-21T06:02:33;98967.72;;;11.10;100.00
60240;BME280;46102;39.012;-7.064;2023-11-21T06:04:33;98964.41;;;10.99;100.00
60240;BME280;46102;39.012;-7.064;2023-11-21T06:06:35;98959.94;;;10.89;100.00
60240;BME280;46102;39.012;-7.064;2023-11-21T06:08:35;98959.88;;;10.80;100.00
60240;BME280;46102;39.012;-7.064;2023-11-21T06:10:36;98970.16;;;10.75;100.00
60240;BME280;46102;39.012;-7.064;2023-11-21T06:12:38;98961.41;;;10.73;100.00
60240;BME280;46102;39.012;-7.064;2023-11-21T06:14:38;98963.34;;;10.72;100.00
60240;BME280;46102;39.012;-7.064;2023-11-21T06:16:39;98961.94;;;10.75;100.00
60240;BME280;46102;39.012;-7.064;2023-11-21T06:18:41;98964.03;;;10.78;100.00
60240;BME280;46102;39.012;-7.064;2023-11-21T06:20:42;98966.69;;;10.83;100.00
60240;BME280;46102;39.012;-7.064;2023-11-21T06:22:43;98966.88;;;10.87;100.00
60240;BME280;46102;39.012;-7.064;2023-11-21T06:24:44;98967.59;;;10.92;100.00
60240;BME280;46102;39.012;-7.064;2023-11-21T06:26:45;98969.69;;;10.95;100.00
60240;BME280;46102;39.012;-7.064;2023-11-21T06:28:45;98980.69;;;10.95;100.00
60240;BME280;46102;39.012;-7.064;2023-11-21T06:30:46;98976.63;;;10.93;100.00
60240;BME280;46102;39.012;-7.064;2023-11-21T06:32:47;98968.91;;;10.95;100.00
60240;BME280;46102;39.012;-7.064;2023-11-21T06:34:48;98973.06;;;10.92;100.00
60240;BME280;46102;39.012;-7.064;2023-11-21T06:36:49;98981.59;;;10.91;100.00
60240;BME280;46102;39.012;-7.064;2023-11-21T06:38:50;98987.91;;;10.91;100.00
60240;BME280;46102;39.012;-7.064;2023-11-21T06:40:51;98991.78;;;10.90;100.00
60240;BME280;46102;39.012;-7.064;2023-11-21T06:42:52;98994.53;;;10.90;100.00
60240;BME280;46102;39.012;-7.064;2023-11-21T06:44:52;98996.75;;;10.88;100.00
60240;BME280;46102;39.012;-7.064;2023-11-21T06:46:54;98993.69;;;10.90;100.00
60240;BME280;46102;39.012;-7.064;2023-11-21T06:48:55;98998.06;;;10.91;100.00
60240;BME280;46102;39.012;-7.064;2023-11-21T06:50:56;98997.78;;;10.92;100.00
60240;BME280;46102;39.012;-7.064;2023-11-21T06:52:57;98999.09;;;10.95;100.00
60240;BME280;46102;39.012;-7.064;2023-11-21T06:54:57;99001.50;;;10.96;100.00
60240;BME280;46102;39.012;-7.064;2023-11-21T06:56:58;99009.94;;;11.00;100.00
60240;BME280;46102;39.012;-7.064;2023-11-21T06:58:59;99012.91;;;11.03;100.00
60240;BME280;46102;39.012;-7.064;2023-11-21T07:01:00;99013.41;;;11.06;100.00
60240;BME280;46102;39.012;-7.064;2023-11-21T07:03:00;99014.50;;;11.04;100.00
60240;BME280;46102;39.012;-7.064;2023-11-21T07:05:01;99025.63;;;10.99;100.00
60240;BME280;46102;39.012;-7.064;2023-11-21T07:07:03;99016.56;;;10.99;100.00
60240;BME280;46102;39.012;-7.064;2023-11-21T07:09:04;99014.00;;;11.02;100.00
60240;BME280;46102;39.012;-7.064;2023-11-21T07:11:05;99021.94;;;11.04;100.00
60240;BME280;46102;39.012;-7.064;2023-11-21T07:13:05;99025.00;;;11.02;100.00
60240;BME280;46102;39.012;-7.064;2023-11-21T07:15:07;99018.19;;;11.00;100.00
60240;BME280;46102;39.012;-7.064;2023-11-21T07:17:09;99020.41;;;10.98;100.00
60240;BME280;46102;39.012;-7.064;2023-11-21T07:19:10;99022.38;;;10.97;100.00
60240;BME280;46102;39.012;-7.064;2023-11-21T07:21:12;99020.03;;;10.91;100.00
60240;BME280;46102;39.012;-7.064;2023-11-21T07:23:13;99018.59;;;10.93;100.00
60240;BME280;46102;39.012;-7.064;2023-11-21T07:25:15;99017.97;;;10.96;100.00
60240;BME280;46102;39.012;-7.064;2023-11-21T07:27:17;99025.63;;;10.99;100.00
60240;BME280;46102;39.012;-7.064;2023-11-21T07:29:18;99032.94;;;11.04;100.00
60240;BME280;46102;39.012;-7.064;2023-11-21T07:31:18;99027.94;;;11.06;100.00
60240;BME280;46102;39.012;-7.064;2023-11-21T07:33:19;99018.28;;;11.09;100.00
60240;BME280;46102;39.012;-7.064;2023-11-21T07:35:21;99019.28;;;11.13;100.00
60240;BME280;46102;39.012;-7.064;2023-11-21T07:37:22;99025.78;;;11.17;100.00
60240;BME280;46102;39.012;-7.064;2023-11-21T07:39:23;99023.50;;;11.19;100.00
60240;BME280;46102;39.012;-7.064;2023-11-21T07:41:24;99022.09;;;11.21;100.00
60240;BME280;46102;39.012;-7.064;2023-11-21T07:43:25;99030.72;;;11.29;100.00
60240;BME280;46102;39.012;-7.064;2023-11-21T07:45:26;99023.97;;;11.35;100.00
60240;BME280;46102;39.012;-7.064;2023-11-21T07:47:28;99027.94;;;11.42;100.00
60240;BME280;46102;39.012;-7.064;2023-11-21T07:49:28;99032.56;;;11.56;100.00
60240;BME280;46102;39.012;-7.064;2023-11-21T07:51:29;99033.94;;;11.67;100.00
60240;BME280;46102;39.012;-7.064;2023-11-21T07:53:30;99025.59;;;11.81;100.00
60240;BME280;46102;39.012;-7.064;2023-11-21T07:55:31;99037.06;;;11.97;100.00
60240;BME280;46102;39.012;-7.064;2023-11-21T07:57:33;99037.47;;;12.13;100.00
60240;BME280;46102;39.012;-7.064;2023-11-21T07:59:34;99032.84;;;12.31;100.00
60240;BME280;46102;39.012;-7.064;2023-11-21T08:01:35;99045.22;;;12.42;100.00
60240;BME280;46102;39.012;-7.064;2023-11-21T08:03:35;99053.50;;;12.50;100.00
60240;BME280;46102;39.012;-7.064;2023-11-21T08:05:36;99057.88;;;12.52;100.00
60240;BME280;46102;39.012;-7.064;2023-11-21T08:07:37;99065.16;;;12.47;100.00
60240;BME280;46102;39.012;-7.064;2023-11-21T08:09:38;99059.50;;;12.53;100.00
60240;BME280;46102;39.012;-7.064;2023-11-21T08:11:39;99069.38;;;12.54;100.00
60240;BME280;46102;39.012;-7.064;2023-11-21T08:13:40;99072.31;;;12.57;100.00
60240;BME280;46102;39.012;-7.064;2023-11-21T08:15:41;99075.09;;;12.66;100.00
60240;BME280;46102;39.012;-7.064;2023-11-21T08:17:46;99077.53;;;12.76;100.00
60240;BME280;46102;39.012;-7.064;2023-11-21T08:19:47;99082.13;;;12.89;100.00
60240;BME280;46102;39.012;-7.064;2023-11-21T08:21:49;99079.88;;;13.00;100.00
60240;BME280;46102;39.012;-7.064;2023-11-21T08:23:50;99078.16;;;13.13;100.00
60240;BME280;46102;39.012;-7.064;2023-11-21T08:25:55;99085.47;;;13.26;100.00
60240;BME280;46102;39.012;-7.064;2023-11-21T08:27:56;99085.34;;;13.40;100.00
60240;BME280;46102;39.012;-7.064;2023-11-21T08:29:57;99099.75;;;13.54;100.00
60240;BME280;46102;39.012;-7.064;2023-11-21T08:31:58;99100.09;;;13.70;100.00
60240;BME280;46102;39.012;-7.064;2023-11-21T08:34:00;99098.94;;;13.89;100.00
60240;BME280;46102;39.012;-7.064;2023-11-21T08:36:09;99084.00;;;14.07;100.00
60240;BME280;46102;39.012;-7.064;2023-11-21T08:38:12;99082.34;;;14.24;100.00
60240;BME280;46102;39.012;-7.064;2023-11-21T08:40:13;99100.28;;;14.47;100.00
60240;BME280;46102;39.012;-7.064;2023-11-21T08:42:16;99106.25;;;14.67;100.00
60240;BME280;46102;39.012;-7.064;2023-11-21T08:44:18;99102.75;;;14.87;100.00
60240;BME280;46102;39.012;-7.064;2023-11-21T08:46:19;99090.16;;;15.07;100.00
60240;BME280;46102;39.012;-7.064;2023-11-21T08:48:20;99085.44;;;15.29;100.00
60240;BME280;46102;39.012;-7.064;2023-11-21T08:50:21;99092.13;;;15.49;100.00
60240;BME280;46102;39.012;-7.064;2023-11-21T08:52:22;99087.97;;;15.64;100.00
60240;BME280;46102;39.012;-7.064;2023-11-21T08:54:23;99084.47;;;15.75;100.00
60240;BME280;46102;39.012;-7.064;2023-11-21T08:56:24;99081.50;;;15.80;100.00
60240;BME280;46102;39.012;-7.064;2023-11-21T08:58:25;99090.19;;;15.91;100.00
60240;BME280;46102;39.012;-7.064;2023-11-21T09:00:26;99097.09;;;15.85;100.00
60240;BME280;46102;39.012;-7.064;2023-11-21T09:02:27;99092.06;;;15.99;100.00
60240;BME280;46102;39.012;-7.064;2023-11-21T09:04:27;99096.91;;;16.02;100.00
60240;BME280;46102;39.012;-7.064;2023-11-21T09:06:28;99100.88;;;16.14;100.00
60240;BME280;46102;39.012;-7.064;2023-11-21T09:08:29;99102.22;;;16.29;100.00
60240;BME280;46102;39.012;-7.064;2023-11-21T09:10:30;99098.09;;;16.47;100.00
60240;BME280;46102;39.012;-7.064;2023-11-21T09:12:34;99115.78;;;16.67;100.00
60240;BME280;46102;39.012;-7.064;2023-11-21T09:14:35;99116.66;;;16.80;100.00
60240;BME280;46102;39.012;-7.064;2023-11-21T09:16:36;99118.59;;;16.92;100.00
60240;BME280;46102;39.012;-7.064;2023-11-21T09:18:37;99110.16;;;17.13;100.00
60240;BME280;46102;39.012;-7.064;2023-11-21T09:20:38;99116.19;;;17.27;100.00
60240;BME280;46102;39.012;-7.064;2023-11-21T09:22:38;99119.94;;;17.47;100.00
60240;BME280;46102;39.012;-7.064;2023-11-21T09:24:39;99123.59;;;17.76;100.00
60240;BME280;46102;39.012;-7.064;2023-11-21T09:26:40;99120.50;;;18.05;100.00
60240;BME280;46102;39.012;-7.064;2023-11-21T09:28:43;99120.34;;;18.42;83.56
60240;BME280;46102;39.012;-7.064;2023-11-21T09:30:46;99120.47;;;18.78;79.59
60240;BME280;46102;39.012;-7.064;2023-11-21T09:32:49;99125.94;;;18.90;75.20
60240;BME280;46102;39.012;-7.064;2023-11-21T09:34:50;99128.91;;;18.97;71.88
60240;BME280;46102;39.012;-7.064;2023-11-21T09:36:51;99126.41;;;19.08;70.25
60240;BME280;46102;39.012;-7.064;2023-11-21T09:38:52;99125.94;;;18.90;67.23
60240;BME280;46102;39.012;-7.064;2023-11-21T09:40:53;99132.19;;;18.71;68.36
60240;BME280;46102;39.012;-7.064;2023-11-21T09:42:55;99128.66;;;18.42;69.74
60240;BME280;46102;39.012;-7.064;2023-11-21T09:47:06;99125.84;;;18.26;71.04
60240;BME280;46102;39.012;-7.064;2023-11-21T09:49:11;99123.50;;;18.13;71.60
60240;BME280;46102;39.012;-7.064;2023-11-21T09:51:14;99131.50;;;18.02;74.35
60240;BME280;46102;39.012;-7.064;2023-11-21T09:53:20;99134.53;;;17.97;75.47
60240;BME280;46102;39.012;-7.064;2023-11-21T09:55:27;99134.53;;;17.97;73.27
60240;BME280;46102;39.012;-7.064;2023-11-21T09:57:30;99131.50;;;18.02;73.96
60240;BME280;46102;39.012;-7.064;2023-11-21T09:59:31;99120.59;;;18.09;78.89
60240;BME280;46102;39.012;-7.064;2023-11-21T10:01:33;99125.44;;;18.12;70.08
60240;BME280;46102;39.012;-7.064;2023-11-21T10:03:36;99115.50;;;18.11;72.51
60240;BME280;46102;39.012;-7.064;2023-11-21T10:05:40;99124.00;;;18.02;73.33
60240;BME280;46102;39.012;-7.064;2023-11-21T10:07:43;99118.38;;;17.86;75.96
60240;BME280;46102;39.012;-7.064;2023-11-21T10:09:45;99124.19;;;17.81;76.03
60240;BME280;46102;39.012;-7.064;2023-11-21T10:11:47;99124.38;;;17.88;78.22
60240;BME280;46102;39.012;-7.064;2023-11-21T10:13:52;99123.19;;;18.02;77.25
60240;BME280;46102;39.012;-7.064;2023-11-21T10:15:54;99117.13;;;18.12;69.54
60240;BME280;46102;39.012;-7.064;2023-11-21T10:17:55;99113.28;;;18.17;69.33
60240;BME280;46102;39.012;-7.064;2023-11-21T10:19:56;99120.63;;;18.53;72.17
60240;BME280;46102;39.012;-7.064;2023-11-21T10:21:59;99113.41;;;18.80;64.75
60240;BME280;46102;39.012;-7.064;2023-11-21T10:24:02;99109.78;;;19.11;63.79
60240;BME280;46102;39.012;-7.064;2023-11-21T10:26:04;99109.84;;;19.31;63.40
60240;BME280;46102;39.012;-7.064;2023-11-21T10:28:05;99108.06;;;19.39;60.47
60240;BME280;46102;39.012;-7.064;2023-11-21T10:30:08;99107.41;;;19.29;60.59